createdAt,value
2018-09-27T00:00:50.949Z,40.00
2018-09-27T00:03:19.414Z,39.70
2018-09-27T00:05:47.875Z,39.60
2018-09-27T00:08:16.344Z,39.40
2018-09-27T00:10:45.172Z,39.20
2018-09-27T00:13:13.685Z,39.10
2018-09-27T00:15:42.131Z,39.00
2018-09-27T00:18:10.716Z,38.90
2018-09-27T00:20:39.206Z,38.60
2018-09-27T00:23:07.885Z,38.30
2018-09-27T00:25:38.502Z,38.00
2018-09-27T00:28:07.180Z,37.70
2018-09-27T00:30:35.737Z,37.70
2018-09-27T00:33:05.695Z,37.70
2018-09-27T00:35:34.489Z,37.60
2018-09-27T00:38:02.969Z,37.50
2018-09-27T00:40:47.722Z,37.50
2018-09-27T00:43:16.365Z,37.30
2018-09-27T00:45:45.122Z,37.40
2018-09-27T00:48:15.718Z,37.40
2018-09-27T00:50:44.341Z,37.30
2018-09-27T00:53:12.849Z,37.20
2018-09-27T00:55:41.695Z,37.10
2018-09-27T00:58:10.774Z,37.10
2018-09-27T01:00:39.612Z,37.00
2018-09-27T01:03:08.729Z,37.00
2018-09-27T01:05:38.288Z,36.60
2018-09-27T01:08:07.868Z,36.70
2018-09-27T01:10:36.656Z,36.60
2018-09-27T01:13:05.228Z,36.60
2018-09-27T01:15:33.969Z,36.70
2018-09-27T01:18:02.636Z,36.50
2018-09-27T01:20:31.272Z,36.40
2018-09-27T01:22:59.801Z,36.40
2018-09-27T01:25:28.407Z,36.50
2018-09-27T01:27:56.841Z,36.40
2018-09-27T01:30:25.396Z,36.10
2018-09-27T01:32:53.801Z,36.10
2018-09-27T01:35:22.329Z,36.10
2018-09-27T01:37:50.779Z,36.00
2018-09-27T01:40:19.189Z,35.90
2018-09-27T01:42:47.662Z,35.90
2018-09-27T01:45:16.260Z,36.00
2018-09-27T01:47:44.716Z,36.10
2018-09-27T01:50:13.218Z,36.00
2018-09-27T01:52:41.872Z,36.00
2018-09-27T01:55:10.319Z,36.00
2018-09-27T01:57:38.788Z,35.90
2018-09-27T02:00:07.298Z,36.00
2018-09-27T02:02:35.744Z,36.10
2018-09-27T02:05:04.221Z,36.10
2018-09-27T02:07:32.649Z,36.10
2018-09-27T02:10:01.104Z,36.20
2018-09-27T02:12:29.552Z,36.30
2018-09-27T02:14:57.982Z,36.20
2018-09-27T02:17:26.423Z,36.30
2018-09-27T02:19:54.909Z,36.30
2018-09-27T02:22:23.349Z,36.20
2018-09-27T02:24:52.807Z,36.30
2018-09-27T02:27:21.347Z,36.40
2018-09-27T02:29:49.787Z,36.30
2018-09-27T02:32:18.225Z,36.40
2018-09-27T02:34:46.691Z,36.40
2018-09-27T02:37:15.159Z,36.40
2018-09-27T02:39:43.592Z,36.40
2018-09-27T02:42:12.040Z,36.50
2018-09-27T02:44:40.546Z,36.50
2018-09-27T02:47:09.096Z,36.60
2018-09-27T02:49:37.513Z,36.70
2018-09-27T02:52:06.184Z,36.60
2018-09-27T02:54:34.777Z,36.70
2018-09-27T02:57:03.388Z,37.30
2018-09-27T02:59:31.888Z,36.70
2018-09-27T03:02:00.510Z,36.80
2018-09-27T03:04:29.022Z,36.80
2018-09-27T03:06:57.698Z,36.70
2018-09-27T03:09:26.286Z,36.80
2018-09-27T03:11:55.757Z,36.80
2018-09-27T03:14:24.268Z,36.80
2018-09-27T03:16:52.918Z,37.00
2018-09-27T03:19:21.749Z,36.90
2018-09-27T03:21:51.107Z,36.80
2018-09-27T03:24:19.828Z,36.80
2018-09-27T03:26:48.631Z,36.80
2018-09-27T03:29:17.445Z,36.60
2018-09-27T03:31:45.937Z,36.60
2018-09-27T03:34:14.458Z,36.70
2018-09-27T03:36:42.957Z,36.60
2018-09-27T03:39:11.583Z,36.60
2018-09-27T03:41:42.315Z,36.70
2018-09-27T03:44:10.959Z,36.60
2018-09-27T03:46:39.470Z,36.70
2018-09-27T03:49:07.924Z,36.70
2018-09-27T03:51:36.436Z,36.70
2018-09-27T03:54:04.953Z,36.80
2018-09-27T03:56:33.579Z,36.70
2018-09-27T03:59:03.160Z,36.80
2018-09-27T04:01:31.836Z,36.90
2018-09-27T04:04:00.351Z,36.80
2018-09-27T04:06:28.849Z,36.80
2018-09-27T04:08:57.381Z,37.00
2018-09-27T04:11:27.960Z,36.90
2018-09-27T04:13:56.386Z,37.00
2018-09-27T04:16:24.930Z,37.10
2018-09-27T04:18:53.634Z,37.20
2018-09-27T04:21:22.114Z,37.30
2018-09-27T04:23:51.174Z,37.30
2018-09-27T04:26:19.715Z,37.40
2018-09-27T04:28:49.390Z,37.40
2018-09-27T04:31:18.128Z,37.40
2018-09-27T04:33:47.863Z,37.40
2018-09-27T04:36:16.708Z,37.30
2018-09-27T04:38:45.130Z,37.30
2018-09-27T04:41:13.589Z,37.20
2018-09-27T04:43:42.344Z,37.30
2018-09-27T04:46:10.799Z,37.30
2018-09-27T04:48:40.329Z,37.30
2018-09-27T04:51:09.223Z,37.30
2018-09-27T04:53:38.889Z,37.40
2018-09-27T04:56:07.961Z,37.40
2018-09-27T04:58:37.494Z,37.40
2018-09-27T05:01:08.385Z,37.40
2018-09-27T05:03:37.010Z,37.40
2018-09-27T05:06:05.528Z,37.50
2018-09-27T05:08:35.132Z,37.30
2018-09-27T05:11:04.853Z,37.30
2018-09-27T05:13:37.129Z,37.40
2018-09-27T05:16:06.341Z,37.40
2018-09-27T05:18:35.038Z,37.60
2018-09-27T05:21:03.622Z,37.50
2018-09-27T05:23:32.127Z,37.70
2018-09-27T05:26:00.680Z,37.70
2018-09-27T05:28:29.184Z,37.70
2018-09-27T05:30:57.662Z,37.70
2018-09-27T05:33:26.120Z,37.70
2018-09-27T05:35:56.346Z,37.70
2018-09-27T05:38:25.256Z,37.70
2018-09-27T05:40:55.049Z,37.70
2018-09-27T05:43:30.497Z,37.80
2018-09-27T05:46:00.250Z,37.80
2018-09-27T05:48:29.613Z,37.90
2018-09-27T05:50:58.853Z,38.10
2018-09-27T05:53:28.365Z,38.00
2018-09-27T05:55:57.837Z,38.50
2018-09-27T05:58:26.962Z,38.10
2018-09-27T06:00:56.296Z,38.10
2018-09-27T06:03:28.193Z,38.10
2018-09-27T06:05:57.600Z,38.20
2018-09-27T06:08:29.217Z,38.20
2018-09-27T06:11:07.533Z,38.40
2018-09-27T06:13:38.887Z,38.50
2018-09-27T06:16:10.335Z,38.70
2018-09-27T06:18:59.639Z,38.60
2018-09-27T06:21:28.284Z,38.80
2018-09-27T06:23:56.792Z,38.80
2018-09-27T06:26:25.264Z,38.80
2018-09-27T06:28:53.766Z,38.80
2018-09-27T06:31:22.268Z,39.00
2018-09-27T06:33:50.940Z,39.00
2018-09-27T06:36:19.530Z,39.20
2018-09-27T06:38:48.022Z,39.30
2018-09-27T06:41:16.733Z,39.30
2018-09-27T06:43:46.138Z,39.60
2018-09-27T06:46:15.152Z,39.70
2018-09-27T06:48:44.263Z,39.80
2018-09-27T06:51:13.598Z,40.00
2018-09-27T06:53:42.852Z,40.00
2018-09-27T06:56:12.180Z,40.20
2018-09-27T06:58:44.688Z,40.20
2018-09-27T07:01:14.347Z,40.40
2018-09-27T07:03:43.997Z,40.50
2018-09-27T07:06:12.592Z,40.60
2018-09-27T07:08:41.150Z,40.60
2018-09-27T07:11:09.664Z,40.60
2018-09-27T07:13:38.113Z,40.50
2018-09-27T07:16:06.601Z,40.70
2018-09-27T07:18:35.228Z,40.80
2018-09-27T07:21:03.640Z,41.00
2018-09-27T07:23:32.221Z,41.00
2018-09-27T07:26:01.704Z,42.00
2018-09-27T07:28:31.524Z,41.50
2018-09-27T07:31:01.006Z,42.30
2018-09-27T07:33:30.386Z,41.90
2018-09-27T07:35:59.765Z,42.10
2018-09-27T07:38:28.743Z,42.20
2018-09-27T07:40:57.739Z,42.30
2018-09-27T07:43:27.100Z,42.40
2018-09-27T07:46:01.255Z,43.30
2018-09-27T07:48:30.262Z,42.80
2018-09-27T07:51:00.036Z,43.00
2018-09-27T07:53:29.103Z,43.20
2018-09-27T07:55:58.170Z,43.40
2018-09-27T07:58:27.349Z,43.60
2018-09-27T08:00:57.006Z,43.90
2018-09-27T08:03:26.404Z,44.30
2018-09-27T08:05:55.672Z,44.30
2018-09-27T08:08:24.661Z,44.60
2018-09-27T08:10:53.778Z,44.80
2018-09-27T08:13:22.860Z,45.10
2018-09-27T08:15:52.223Z,45.20
2018-09-27T08:18:21.399Z,45.50
2018-09-27T08:20:50.632Z,45.50
2018-09-27T08:23:19.904Z,45.30
2018-09-27T08:25:49.390Z,45.90
2018-09-27T08:28:20.075Z,45.90
2018-09-27T08:30:50.631Z,46.10
2018-09-27T08:33:20.669Z,46.30
2018-09-27T08:35:49.909Z,46.50
2018-09-27T08:38:21.029Z,46.60
2018-09-27T08:40:50.454Z,46.80
2018-09-27T08:43:19.332Z,47.00
2018-09-27T08:45:48.035Z,47.20
2018-09-27T08:48:16.387Z,47.60
2018-09-27T08:50:44.839Z,47.90
2018-09-27T08:53:15.685Z,48.20
2018-09-27T08:55:45.526Z,48.50
2018-09-27T08:58:14.702Z,48.50
2018-09-27T09:00:44.348Z,48.60
2018-09-27T09:03:14.672Z,48.80
2018-09-27T09:05:44.212Z,48.90
2018-09-27T09:08:13.375Z,48.90
2018-09-27T09:10:42.684Z,48.80
2018-09-27T09:13:11.933Z,48.90
2018-09-27T09:15:41.299Z,49.00
2018-09-27T09:18:10.642Z,49.10
2018-09-27T09:20:41.112Z,49.20
2018-09-27T09:23:10.645Z,49.30
2018-09-27T09:25:40.203Z,49.60
2018-09-27T09:28:09.669Z,49.70
2018-09-27T09:30:39.285Z,49.70
2018-09-27T09:33:08.011Z,49.90
2018-09-27T09:35:38.340Z,49.80
2018-09-27T09:38:07.707Z,49.90
2018-09-27T09:40:36.987Z,49.90
2018-09-27T09:43:07.952Z,49.90
2018-09-27T09:45:37.357Z,50.00
2018-09-27T09:48:07.569Z,50.10
2018-09-27T09:50:36.851Z,50.10
2018-09-27T09:53:06.838Z,50.10
2018-09-27T09:55:36.903Z,50.10
2018-09-27T09:58:07.126Z,50.00
2018-09-27T10:00:37.730Z,50.00
2018-09-27T10:03:08.528Z,49.90
2018-09-27T10:05:38.412Z,49.70
2018-09-27T10:08:07.305Z,49.70
2018-09-27T10:10:37.394Z,49.80
2018-09-27T10:13:06.881Z,49.70
2018-09-27T10:15:36.166Z,49.50
2018-09-27T10:18:05.572Z,49.60
2018-09-27T10:20:34.952Z,49.70
2018-09-27T10:23:04.166Z,49.60
2018-09-27T10:25:33.527Z,49.40
2018-09-27T10:28:03.273Z,49.30
2018-09-27T10:30:33.569Z,49.40
2018-09-27T10:33:03.235Z,49.60
2018-09-27T10:35:32.854Z,49.70
2018-09-27T10:38:03.475Z,49.50
2018-09-27T10:40:34.428Z,49.40
2018-09-27T10:43:05.855Z,49.30
2018-09-27T10:45:35.329Z,49.20
2018-09-27T10:48:05.026Z,49.10
2018-09-27T10:50:34.735Z,48.90
2018-09-27T10:53:04.968Z,48.90
2018-09-27T10:55:34.833Z,49.00
2018-09-27T10:58:04.185Z,49.00
2018-09-27T11:00:33.995Z,48.90
2018-09-27T11:03:03.330Z,48.80
2018-09-27T11:05:33.323Z,49.10
2018-09-27T11:08:03.245Z,49.00
2018-09-27T11:10:33.993Z,48.80
2018-09-27T11:13:03.650Z,49.00
2018-09-27T11:15:34.346Z,49.30
2018-09-27T11:18:04.255Z,49.20
2018-09-27T11:20:34.402Z,49.20
2018-09-27T11:23:03.726Z,49.30
2018-09-27T11:25:33.096Z,49.60
2018-09-27T11:28:02.573Z,49.60
2018-09-27T11:30:33.525Z,49.70
2018-09-27T11:33:04.458Z,49.90
2018-09-27T11:35:34.361Z,50.50
2018-09-27T11:38:03.196Z,50.40
2018-09-27T11:40:31.717Z,49.40
2018-09-27T11:43:00.159Z,48.70
2018-09-27T11:45:28.733Z,48.40
2018-09-27T11:47:57.943Z,48.40
2018-09-27T11:50:26.435Z,48.40
2018-09-27T11:52:54.993Z,47.90
2018-09-27T11:55:23.616Z,47.80
2018-09-27T11:57:52.146Z,47.60
2018-09-27T12:00:22.691Z,46.50
2018-09-27T12:02:51.156Z,44.70
2018-09-27T12:05:20.070Z,42.80
2018-09-27T12:07:48.664Z,41.70
2018-09-27T12:10:17.272Z,40.50
2018-09-27T12:12:45.776Z,39.60
2018-09-27T12:15:14.404Z,37.90
2018-09-27T12:17:42.930Z,37.40
2018-09-27T12:20:11.710Z,36.60
2018-09-27T12:22:40.304Z,36.90
2018-09-27T12:25:08.886Z,36.10
2018-09-27T12:27:38.154Z,35.50
2018-09-27T12:30:07.318Z,35.00
2018-09-27T12:32:36.089Z,34.60
2018-09-27T12:35:04.595Z,34.30
2018-09-27T12:37:33.049Z,34.00
2018-09-27T12:40:01.549Z,33.90
2018-09-27T12:42:30.124Z,33.40
2018-09-27T12:44:58.552Z,33.10
2018-09-27T12:47:27.203Z,32.60
2018-09-27T12:49:56.150Z,32.30
2018-09-27T12:52:25.164Z,32.20
2018-09-27T12:54:55.688Z,32.10
2018-09-27T12:57:26.771Z,31.90
2018-09-27T12:59:56.966Z,31.80
2018-09-27T13:02:25.856Z,31.60
2018-09-27T13:04:54.337Z,31.50
2018-09-27T13:07:22.953Z,31.40
2018-09-27T13:09:51.652Z,31.30
2018-09-27T13:12:20.397Z,31.40
2018-09-27T13:14:49.052Z,31.50
2018-09-27T13:17:17.738Z,31.40
2018-09-27T13:19:46.521Z,31.00
2018-09-27T13:22:15.979Z,31.30
2018-09-27T13:24:48.105Z,31.90
2018-09-27T13:27:16.785Z,31.20
2018-09-27T13:29:45.280Z,31.20
2018-09-27T13:32:14.374Z,31.20
2018-09-27T13:34:43.755Z,31.10
2018-09-27T13:37:12.307Z,30.90
2018-09-27T13:39:40.888Z,30.90
2018-09-27T13:42:14.944Z,31.00
2018-09-27T13:44:47.874Z,31.20
2018-09-27T13:47:16.814Z,31.10
2018-09-27T13:49:47.498Z,31.60
2018-09-27T13:52:16.921Z,30.80
2018-09-27T13:54:45.853Z,31.00
2018-09-27T13:57:14.859Z,30.50
2018-09-27T13:59:51.117Z,30.50
2018-09-27T14:02:20.320Z,30.50
2018-09-27T14:04:49.002Z,30.70
2018-09-27T14:07:17.951Z,30.70
2018-09-27T14:09:53.201Z,30.50
2018-09-27T14:12:22.872Z,30.40
2018-09-27T14:15:00.948Z,30.70
2018-09-27T14:17:42.181Z,30.80
2018-09-27T14:20:11.292Z,30.60
2018-09-27T14:22:40.677Z,30.90
2018-09-27T14:25:14.357Z,32.00
2018-09-27T14:27:43.995Z,32.60
2018-09-27T14:30:13.996Z,33.40
2018-09-27T14:32:42.719Z,34.30
2018-09-27T14:35:11.401Z,35.10
2018-09-27T14:37:39.976Z,35.90
2018-09-27T14:40:08.845Z,36.50
2018-09-27T14:42:37.440Z,37.30
2018-09-27T14:45:06.103Z,37.80
2018-09-27T14:47:35.613Z,38.40
2018-09-27T14:50:05.112Z,39.40
2018-09-27T14:52:35.367Z,40.20
2018-09-27T14:55:04.083Z,40.80
2018-09-27T14:57:33.289Z,41.20
2018-09-27T15:00:02.528Z,41.80
2018-09-27T15:02:45.253Z,42.30
2018-09-27T15:05:15.049Z,42.80
2018-09-27T15:07:44.509Z,43.10
2018-09-27T15:10:13.663Z,43.70
2018-09-27T15:12:43.205Z,43.80
2018-09-27T15:15:14.093Z,44.30
2018-09-27T15:17:42.976Z,44.60
2018-09-27T15:20:11.560Z,44.80
2018-09-27T15:22:40.302Z,45.10
2018-09-27T15:25:10.617Z,45.30
2018-09-27T15:27:39.416Z,45.50
2018-09-27T15:30:09.116Z,45.80
2018-09-27T15:32:38.951Z,46.00
2018-09-27T15:35:15.059Z,46.20
2018-09-27T15:37:44.141Z,46.90
2018-09-27T15:40:14.215Z,46.70
2018-09-27T15:42:45.259Z,46.70
2018-09-27T15:45:15.576Z,46.90
2018-09-27T15:47:44.604Z,47.10
2018-09-27T15:50:13.184Z,47.40
2018-09-27T15:52:41.812Z,47.40
2018-09-27T15:55:10.710Z,47.50
2018-09-27T15:57:39.996Z,47.80
2018-09-27T16:00:08.915Z,48.20
2018-09-27T16:02:37.977Z,48.40
2018-09-27T16:05:07.174Z,48.70
2018-09-27T16:07:37.748Z,48.70
2018-09-27T16:10:06.708Z,48.90
2018-09-27T16:12:36.932Z,49.10
2018-09-27T16:15:05.751Z,49.40
2018-09-27T16:17:34.965Z,49.50
2018-09-27T16:20:04.098Z,49.80
2018-09-27T16:22:39.605Z,50.00
2018-09-27T16:25:09.557Z,50.00
2018-09-27T16:27:39.687Z,50.10
2018-09-27T16:32:56.718Z,50.40
2018-09-27T16:35:36.132Z,50.70
2018-09-27T16:38:09.532Z,50.90
2018-09-27T16:40:46.769Z,51.00
2018-09-27T16:43:19.290Z,50.90
2018-09-27T16:45:53.737Z,50.80
2018-09-27T16:48:24.365Z,51.00
2018-09-27T16:50:58.826Z,51.30
2018-09-27T16:53:32.364Z,51.40
2018-09-27T16:56:09.885Z,51.50
2018-09-27T16:58:46.729Z,51.50
2018-09-27T17:01:22.642Z,52.20
2018-09-27T17:03:55.856Z,52.10
2018-09-27T17:06:34.317Z,52.40
2018-09-27T17:09:07.419Z,52.60
2018-09-27T17:11:36.135Z,53.10
2018-09-27T17:14:08.913Z,53.10
2018-09-27T17:16:37.754Z,53.30
2018-09-27T17:19:06.948Z,53.70
2018-09-27T17:21:38.246Z,54.00
2018-09-27T17:24:28.985Z,54.30
2018-09-27T17:26:59.310Z,54.60
2018-09-27T17:29:33.104Z,54.90
2018-09-27T17:32:03.748Z,55.20
2018-09-27T17:34:32.505Z,55.50
2018-09-27T17:37:03.684Z,55.80
2018-09-27T17:39:48.952Z,55.90
2018-09-27T17:42:20.079Z,56.60
2018-09-27T17:44:53.574Z,56.60
2018-09-27T17:47:37.001Z,56.80
2018-09-27T17:50:05.839Z,56.70
2018-09-27T17:52:34.569Z,57.00
2018-09-27T17:55:03.227Z,57.20
2018-09-27T17:57:32.207Z,57.60
2018-09-27T18:00:01.065Z,57.80
2018-09-27T18:02:30.337Z,58.00
2018-09-27T18:05:02.601Z,58.20
2018-09-27T18:07:31.483Z,58.30
2018-09-27T18:10:02.469Z,58.50
2018-09-27T18:12:31.641Z,58.80
2018-09-27T18:15:03.601Z,59.10
2018-09-27T18:17:34.740Z,59.40
2018-09-27T18:20:10.288Z,59.70
2018-09-27T18:22:43.361Z,59.80
2018-09-27T18:25:14.064Z,60.70
2018-09-27T18:27:44.601Z,60.00
2018-09-27T18:30:21.292Z,60.30
2018-09-27T18:32:51.365Z,60.30
2018-09-27T18:35:21.331Z,60.60
2018-09-27T18:37:51.499Z,60.80
2018-09-27T18:40:20.938Z,61.50
2018-09-27T18:42:50.015Z,61.80
2018-09-27T18:45:19.675Z,61.50
2018-09-27T18:47:48.694Z,61.70
2018-09-27T18:50:17.242Z,61.80
2018-09-27T18:52:46.558Z,61.90
2018-09-27T18:55:25.163Z,61.90
2018-09-27T18:57:55.530Z,61.90
2018-09-27T19:00:25.020Z,62.00
2018-09-27T19:02:53.780Z,62.00
2018-09-27T19:05:22.950Z,62.30
2018-09-27T19:07:51.617Z,62.40
2018-09-27T19:10:20.478Z,62.50
2018-09-27T19:12:49.335Z,62.60
2018-09-27T19:15:18.357Z,62.70
2018-09-27T19:17:46.849Z,62.70
2018-09-27T19:20:15.555Z,63.60
2018-09-27T19:22:44.156Z,62.90
2018-09-27T19:25:12.808Z,63.00
2018-09-27T19:27:41.553Z,63.00
2018-09-27T19:30:10.162Z,63.00
2018-09-27T19:32:38.704Z,63.10
2018-09-27T19:35:07.317Z,63.10
2018-09-27T19:37:35.944Z,63.10
2018-09-27T19:40:04.827Z,63.30
2018-09-27T19:42:33.618Z,64.30
2018-09-27T19:45:03.062Z,63.30
2018-09-27T19:47:32.308Z,63.30
2018-09-27T19:50:01.106Z,63.60
2018-09-27T19:52:31.179Z,63.20
2018-09-27T19:55:00.122Z,63.30
2018-09-27T19:57:29.098Z,63.50
2018-09-27T19:59:57.692Z,63.60
2018-09-27T20:02:30.033Z,64.40
2018-09-27T20:04:58.737Z,63.60
2018-09-27T20:07:27.856Z,63.90
2018-09-27T20:09:56.734Z,64.00
2018-09-27T20:12:27.549Z,64.10
2018-09-27T20:14:56.205Z,64.10
2018-09-27T20:17:25.186Z,64.30
2018-09-27T20:19:54.901Z,64.50
2018-09-27T20:22:23.526Z,64.40
2018-09-27T20:24:52.558Z,64.80
2018-09-27T20:27:21.408Z,64.80
2018-09-27T20:29:56.158Z,64.90
2018-09-27T20:32:25.066Z,64.90
2018-09-27T20:34:53.610Z,65.00
2018-09-27T20:37:22.749Z,65.10
2018-09-27T20:39:53.394Z,65.20
2018-09-27T20:42:22.049Z,65.30
2018-09-27T20:44:50.605Z,65.40
2018-09-27T20:47:26.784Z,65.60
2018-09-27T20:49:55.315Z,65.60
2018-09-27T20:52:24.022Z,65.70
2018-09-27T20:54:52.915Z,65.90
2018-09-27T20:57:21.392Z,66.90
2018-09-27T20:59:49.920Z,66.20
2018-09-27T21:02:18.845Z,66.10
2018-09-27T21:04:47.887Z,66.20
2018-09-27T21:07:16.938Z,66.20
2018-09-27T21:09:45.916Z,66.10
2018-09-27T21:12:14.472Z,66.10
2018-09-27T21:14:43.182Z,66.30
2018-09-27T21:17:12.172Z,66.20
2018-09-27T21:19:44.180Z,66.20
2018-09-27T21:22:13.288Z,66.20
2018-09-27T21:24:41.892Z,66.20
2018-09-27T21:27:10.616Z,67.00
2018-09-27T21:29:44.101Z,66.10
2018-09-27T21:32:12.911Z,66.10
2018-09-27T21:34:41.561Z,66.10
2018-09-27T21:37:10.682Z,66.30
2018-09-27T21:39:41.051Z,66.50
2018-09-27T21:42:17.739Z,66.60
2018-09-27T21:44:48.513Z,66.70
2018-09-27T21:47:19.239Z,66.70
2018-09-27T21:49:55.304Z,66.80
2018-09-27T21:52:24.181Z,66.90
2018-09-27T21:54:55.225Z,66.90
2018-09-27T21:57:24.105Z,66.90
2018-09-27T21:59:52.665Z,67.00
2018-09-27T22:02:21.356Z,67.20
2018-09-27T22:04:54.340Z,67.20
2018-09-27T22:07:25.527Z,67.30
2018-09-27T22:09:55.767Z,67.30
2018-09-27T22:12:35.896Z,67.40
2018-09-27T22:15:05.941Z,67.50
2018-09-27T22:17:34.564Z,67.50
2018-09-27T22:20:03.418Z,67.50
2018-09-27T22:22:32.418Z,67.60
2018-09-27T22:25:00.933Z,67.60
2018-09-27T22:27:30.529Z,67.60
2018-09-27T22:30:01.911Z,67.70
2018-09-27T22:32:31.909Z,67.80
2018-09-27T22:35:03.941Z,67.90
2018-09-27T22:37:36.512Z,67.80
2018-09-27T22:40:07.249Z,68.00
2018-09-27T22:42:36.001Z,68.10
2018-09-27T22:45:04.690Z,68.00
2018-09-27T22:47:33.141Z,68.10
2018-09-27T22:50:01.597Z,68.20
2018-09-27T22:52:30.110Z,68.20
2018-09-27T22:54:58.557Z,68.20
2018-09-27T22:57:27.021Z,68.40
2018-09-27T22:59:55.497Z,68.30
2018-09-27T23:02:23.966Z,68.40
2018-09-27T23:04:52.416Z,68.40
2018-09-27T23:07:20.919Z,68.50
2018-09-27T23:09:49.391Z,68.50
2018-09-27T23:12:17.862Z,68.60
2018-09-27T23:14:46.376Z,68.70
2018-09-27T23:17:14.909Z,68.70
2018-09-27T23:19:43.788Z,68.70
2018-09-27T23:22:12.516Z,68.80
2018-09-27T23:24:43.334Z,68.90
2018-09-27T23:27:12.088Z,68.80
2018-09-27T23:29:40.587Z,68.90
2018-09-27T23:32:09.080Z,68.90
2018-09-27T23:34:37.517Z,68.90
2018-09-27T23:37:06.408Z,68.90
2018-09-27T23:39:35.220Z,68.90
2018-09-27T23:42:04.284Z,68.80
2018-09-27T23:44:32.746Z,68.80
2018-09-27T23:47:01.457Z,68.90
2018-09-27T23:49:34.431Z,68.90
2018-09-27T23:52:03.049Z,68.30
2018-09-27T23:54:32.467Z,69.10
2018-09-27T23:57:01.002Z,69.10
2018-09-27T23:59:29.537Z,69.20
